Time,TemperatureF,DewpointF,PressureIn,WindDirection,WindDirectionDegrees,WindSpeedMPH,WindSpeedGustMPH,Humidity,HourlyPrecipIn,Conditions,Clouds,dailyrainin,SoftwareType,DateUTC
2013-07-06 00:12:00,72.5,65.0,30.02,WSW,245,1.0,1.0,76,0.00,,,0.00,weatherlink.com 1.10,2013-07-06 04:12:00,
2013-07-06 00:27:00,71.9,64.0,30.03,West,270,0.0,1.0,77,0.00,,,0.00,weatherlink.com 1.10,2013-07-06 04:27:00,
2013-07-06 00:42:00,71.8,65.0,30.02,WSW,257,0.0,1.0,78,0.00,,,0.00,weatherlink.com 1.10,2013-07-06 04:42:00,
2013-07-06 00:57:00,71.4,65.0,30.02,WSW,245,1.0,1.0,79,0.00,,,0.00,weatherlink.com 1.10,2013-07-06 04:57:00,
2013-07-06 01:12:00,70.9,65.0,30.03,WSW,245,0.0,0.0,81,0.00,,,0.00,weatherlink.com 1.10,2013-07-06 05:12:00,
2013-07-06 01:27:00,70.6,65.0,30.03,WSW,243,1.0,2.0,82,0.00,,,0.00,weatherlink.com 1.10,2013-07-06 05:27:00,
2013-07-06 01:42:00,70.7,65.0,30.02,SW,235,0.0,2.0,82,0.00,,,0.00,weatherlink.com 1.10,2013-07-06 05:42:00,
2013-07-06 01:57:00,71.3,65.0,30.02,West,281,0.0,3.0,81,0.00,,,0.00,weatherlink.com 1.10,2013-07-06 05:57:00,
2013-07-06 02:12:00,71.2,66.0,30.02,West,260,1.0,3.0,82,0.00,,,0.00,weatherlink.com 1.10,2013-07-06 06:12:00,
2013-07-06 02:27:00,71.1,66.0,30.02,WSW,253,2.0,4.0,83,0.00,,,0.00,weatherlink.com 1.10,2013-07-06 06:27:00,
2013-07-06 02:42:00,70.9,66.0,30.02,WSW,253,0.0,4.0,84,0.00,,,0.00,weatherlink.com 1.10,2013-07-06 06:42:00,
2013-07-06 02:57:00,70.7,66.0,30.02,WSW,249,1.0,4.0,86,0.00,,,0.00,weatherlink.com 1.10,2013-07-06 06:57:00,
2013-07-06 03:12:00,70.5,66.0,30.02,West,269,1.0,5.0,86,0.00,,,0.00,weatherlink.com 1.10,2013-07-06 07:12:00,
2013-07-06 03:27:00,70.2,66.0,30.02,WSW,250,3.0,4.0,87,0.00,,,0.00,weatherlink.com 1.10,2013-07-06 07:27:00,
2013-07-06 03:42:00,70.0,66.0,30.03,WSW,253,3.0,6.0,88,0.00,,,0.00,weatherlink.com 1.10,2013-07-06 07:42:00,
2013-07-06 03:57:00,69.7,66.0,30.03,West,262,2.0,4.0,89,0.00,,,0.00,weatherlink.com 1.10,2013-07-06 07:57:00,
2013-07-06 04:12:00,69.4,66.0,30.03,West,259,1.0,5.0,90,0.00,,,0.00,weatherlink.com 1.10,2013-07-06 08:12:00,
2013-07-06 04:27:00,69.2,66.0,30.03,West,276,1.0,3.0,90,0.00,,,0.00,weatherlink.com 1.10,2013-07-06 08:27:00,
2013-07-06 04:42:00,69.0,66.0,30.02,WSW,257,1.0,4.0,91,0.00,,,0.00,weatherlink.com 1.10,2013-07-06 08:42:00,
2013-07-06 04:57:00,68.8,66.0,30.03,WSW,238,1.0,4.0,92,0.00,,,0.00,weatherlink.com 1.10,2013-07-06 08:57:00,
2013-07-06 05:12:00,68.8,66.0,30.03,West,259,2.0,5.0,92,0.00,,,0.00,weatherlink.com 1.10,2013-07-06 09:12:00,
2013-07-06 05:27:00,68.9,67.0,30.04,West,269,1.0,4.0,92,0.00,,,0.00,weatherlink.com 1.10,2013-07-06 09:27:00,
2013-07-06 05:42:00,68.7,66.0,30.04,West,264,1.0,4.0,92,0.00,,,0.00,weatherlink.com 1.10,2013-07-06 09:42:00,
2013-07-06 05:57:00,68.3,66.0,30.04,SW,235,0.0,2.0,93,0.00,,,0.00,weatherlink.com 1.10,2013-07-06 09:57:00,
2013-07-06 06:12:00,68.1,66.0,30.04,WSW,245,1.0,3.0,94,0.00,,,0.00,weatherlink.com 1.10,2013-07-06 10:12:00,
2013-07-06 06:27:00,68.1,66.0,30.04,West,264,1.0,3.0,94,0.00,,,0.00,weatherlink.com 1.10,2013-07-06 10:27:00,
2013-07-06 06:42:00,68.6,67.0,30.04,WSW,246,0.0,3.0,94,0.00,,,0.00,weatherlink.com 1.10,2013-07-06 10:42:00,
2013-07-06 06:57:00,69.7,67.0,30.05,West,259,0.0,2.0,92,0.00,,,0.00,weatherlink.com 1.10,2013-07-06 10:57:00,
2013-07-06 07:12:00,70.6,68.0,30.05,WSW,250,1.0,4.0,90,0.00,,,0.00,weatherlink.com 1.10,2013-07-06 11:12:00,
2013-07-06 07:27:00,71.6,68.0,30.05,WSW,243,1.0,4.0,89,0.00,,,0.00,weatherlink.com 1.10,2013-07-06 11:27:00,
2013-07-06 07:42:00,72.5,69.0,30.05,West,260,1.0,4.0,87,0.00,,,0.00,weatherlink.com 1.10,2013-07-06 11:42:00,
2013-07-06 07:57:00,73.5,69.0,30.05,WSW,249,2.0,5.0,85,0.00,,,0.00,weatherlink.com 1.10,2013-07-06 11:57:00,
2013-07-06 08:13:00,73.7,69.0,30.04,WSW,248,1.0,6.0,85,0.00,,,0.00,weatherlink.com 1.10,2013-07-06 12:13:00,
2013-07-06 08:28:00,75.1,69.0,30.05,SW,235,3.0,6.0,82,0.00,,,0.00,weatherlink.com 1.10,2013-07-06 12:28:00,
2013-07-06 08:43:00,75.9,69.0,30.04,WSW,241,1.0,5.0,80,0.00,,,0.00,weatherlink.com 1.10,2013-07-06 12:43:00,
2013-07-06 08:58:00,76.2,69.0,30.04,SW,221,4.0,6.0,79,0.00,,,0.00,weatherlink.com 1.10,2013-07-06 12:58:00,
2013-07-06 09:13:00,77.7,70.0,30.04,West,262,3.0,5.0,77,0.00,,,0.00,weatherlink.com 1.10,2013-07-06 13:13:00,
2013-07-06 09:28:00,78.5,70.0,30.04,SW,231,1.0,5.0,75,0.00,,,0.00,weatherlink.com 1.10,2013-07-06 13:28:00,
2013-07-06 09:43:00,79.5,70.0,30.04,West,278,1.0,5.0,73,0.00,,,0.00,weatherlink.com 1.10,2013-07-06 13:43:00,
2013-07-06 09:58:00,80.4,71.0,30.04,WNW,284,1.0,5.0,72,0.00,,,0.00,weatherlink.com 1.10,2013-07-06 13:58:00,
2013-07-06 10:13:00,81.2,70.0,30.03,NNW,330,0.0,6.0,69,0.00,,,0.00,weatherlink.com 1.10,2013-07-06 14:13:00,
2013-07-06 10:28:00,81.4,70.0,30.04,SW,215,4.0,6.0,69,0.00,,,0.00,weatherlink.com 1.10,2013-07-06 14:28:00,
2013-07-06 10:43:00,82.2,70.0,30.03,WSW,256,1.0,7.0,66,0.00,,,0.00,weatherlink.com 1.10,2013-07-06 14:43:00,
2013-07-06 10:58:00,83.0,70.0,30.03,WSW,238,4.0,5.0,65,0.00,,,0.00,weatherlink.com 1.10,2013-07-06 14:58:00,
2013-07-06 11:13:00,82.6,69.0,30.03,WSW,250,4.0,7.0,64,0.00,,,0.00,weatherlink.com 1.10,2013-07-06 15:13:00,
2013-07-06 11:28:00,83.7,69.0,30.03,West,274,6.0,7.0,62,0.00,,,0.00,weatherlink.com 1.10,2013-07-06 15:28:00,
2013-07-06 11:43:00,82.4,69.0,30.03,WSW,250,2.0,7.0,64,0.00,,,0.00,weatherlink.com 1.10,2013-07-06 15:43:00,
2013-07-06 11:58:00,82.3,69.0,30.03,West,259,3.0,8.0,65,0.00,,,0.00,weatherlink.com 1.10,2013-07-06 15:58:00,
2013-07-06 12:13:00,79.6,71.0,30.03,East,101,6.0,8.0,76,0.00,,,0.00,weatherlink.com 1.10,2013-07-06 16:13:00,
2013-07-06 12:28:00,77.7,71.0,30.03,East,89,6.0,7.0,80,0.00,,,0.00,weatherlink.com 1.10,2013-07-06 16:28:00,
2013-07-06 13:43:00,79.9,71.0,30.01,East,92,2.0,9.0,74,0.00,,,0.00,weatherlink.com 1.10,2013-07-06 17:43:00,
2013-07-06 14:13:00,80.3,70.0,30.00,East,96,5.0,10.0,70,0.00,,,0.00,weatherlink.com 1.10,2013-07-06 18:13:00,
2013-07-06 14:28:00,78.7,72.0,29.99,East,82,7.0,11.0,81,0.00,,,0.00,weatherlink.com 1.10,2013-07-06 18:28:00,
2013-07-06 14:43:00,78.7,73.0,29.99,East,97,6.0,9.0,82,0.00,,,0.00,weatherlink.com 1.10,2013-07-06 18:43:00,
2013-07-06 14:59:00,79.2,73.0,29.98,East,79,6.0,7.0,80,0.00,,,0.00,weatherlink.com 1.10,2013-07-06 18:59:00,
2013-07-06 15:29:00,80.1,74.0,29.98,East,86,5.0,10.0,81,0.00,,,0.00,weatherlink.com 1.10,2013-07-06 19:29:00,
2013-07-06 15:44:00,79.8,73.0,29.98,ESE,105,6.0,9.0,80,0.00,,,0.00,weatherlink.com 1.10,2013-07-06 19:44:00,
2013-07-06 15:59:00,83.6,72.0,29.97,North,9,2.0,5.0,69,0.00,,,0.00,weatherlink.com 1.10,2013-07-06 19:59:00,
2013-07-06 16:14:00,84.3,69.0,29.97,NNE,33,1.0,4.0,61,0.00,,,0.00,weatherlink.com 1.10,2013-07-06 20:14:00,
2013-07-06 16:59:00,82.2,73.0,29.96,ENE,70,3.0,5.0,73,0.00,,,0.00,weatherlink.com 1.10,2013-07-06 20:59:00,
2013-07-06 17:14:00,81.9,74.0,29.96,NE,53,3.0,5.0,78,0.00,,,0.00,weatherlink.com 1.10,2013-07-06 21:14:00,
2013-07-06 17:29:00,80.5,74.0,29.95,ENE,72,5.0,8.0,81,0.00,,,0.00,weatherlink.com 1.10,2013-07-06 21:29:00,
2013-07-06 17:59:00,81.1,74.0,29.95,ENE,74,4.0,6.0,79,0.00,,,0.00,weatherlink.com 1.10,2013-07-06 21:59:00,
2013-07-06 18:59:00,81.0,72.0,29.93,East,98,2.0,2.0,75,0.00,,,0.00,weatherlink.com 1.10,2013-07-06 22:59:00,
2013-07-06 19:14:00,80.8,74.0,29.92,East,98,4.0,5.0,80,0.00,,,0.00,weatherlink.com 1.10,2013-07-06 23:14:00,
2013-07-06 19:29:00,80.6,75.0,29.92,ESE,103,1.0,3.0,82,0.00,,,0.00,weatherlink.com 1.10,2013-07-06 23:29:00,
2013-07-06 19:59:00,84.3,71.0,29.92,South,188,0.0,2.0,65,0.00,,,0.00,weatherlink.com 1.10,2013-07-06 23:59:00,
2013-07-06 20:14:00,84.0,70.0,29.92,WSW,249,0.0,3.0,63,0.00,,,0.00,weatherlink.com 1.10,2013-07-07 00:14:00,
2013-07-06 20:29:00,83.3,69.0,29.92,WSW,246,0.0,2.0,63,0.00,,,0.00,weatherlink.com 1.10,2013-07-07 00:29:00,
2013-07-06 20:44:00,82.3,69.0,29.93,West,271,2.0,2.0,65,0.00,,,0.00,weatherlink.com 1.10,2013-07-07 00:44:00,
2013-07-06 21:44:00,78.9,70.0,29.94,WSW,245,0.0,1.0,75,0.00,,,0.00,weatherlink.com 1.10,2013-07-07 01:44:00,
2013-07-06 21:59:00,78.2,70.0,29.94,WSW,244,0.0,1.0,76,0.00,,,0.00,weatherlink.com 1.10,2013-07-07 01:59:00,
2013-07-06 22:44:00,77.3,70.0,29.95,WSW,255,0.0,1.0,78,0.00,,,0.00,weatherlink.com 1.10,2013-07-07 02:44:00,
2013-07-06 22:59:00,77.1,70.0,29.95,WSW,255,0.0,1.0,78,0.00,,,0.00,weatherlink.com 1.10,2013-07-07 02:59:00,
2013-07-06 23:44:00,76.9,70.0,29.95,WSW,252,0.0,3.0,80,0.00,,,0.00,weatherlink.com 1.10,2013-07-07 03:44:00,